You are not logged in, Click here to log in
ICAO: SCSE Country: 智利拉塞勒那
Latitude: -29.9162 Longitude: -71.1995
Total Arrivals: 1 Total Departures: 1
Latest Arrival: LA1250 (SCFA-SCSE)Stone. Chang Latest Departure: H2164 (SCSE-SCFA)Stone. Chang
Scenery:
METAR : SCSE 210700Z VRB01KT 9999 SCT010 11/09 Q1016

拉佛罗里达机场LSC